Urb Puertas del Sol, Puerto Rico
Current Conditions -  °F | °C
As of 3:53 AM on Sunday 26 Oct 2014 (Local Time) from TJNR Reporting Station
Clear Clear  
Wind Chill: 77°   Ceiling: Unl
Heat Index: 78°   Visibility: 9mi
Dew Point: 74°   Wind: 5mph
Humidity: 90%   Direction: 310°NW
Pressure: 29.86"   Gusts: NA
Location:  18.3304°N, 65.6573°W
Report Text: TJNR 260753Z AUTO 31004KT 9SM CLR 25/23 A2986 RMK AO2 SLP112 T02500233 $
Loading
Personal Weather Stations






























Interactive Weather Map
Tropical Storm Tracking
New forecast layout! Learn more

10-Day Weather Forecast

Advertisements
Track Severe Weather on mobile